createdAt,value
2023-01-11T00:00:36.445Z,22.4
2023-01-11T00:05:58.812Z,22.4
2023-01-11T00:11:05.964Z,22.4
2023-01-11T00:16:28.975Z,22.4
2023-01-11T00:21:51.424Z,22.4
2023-01-11T00:26:58.073Z,22.4
2023-01-11T00:32:20.976Z,22.4
2023-01-11T00:37:43.619Z,22.4
2023-01-11T00:43:06.546Z,22.4
2023-01-11T00:48:29.408Z,22.4
2023-01-11T00:53:51.993Z,22.4
2023-01-11T00:59:14.922Z,22.4
2023-01-11T01:04:22.247Z,22.4
2023-01-11T01:09:28.334Z,22.4
2023-01-11T01:14:34.377Z,22.4
2023-01-11T01:19:41.549Z,22.4
2023-01-11T01:25:03.390Z,22.4
2023-01-11T01:30:10.532Z,22.3
2023-01-11T01:35:32.501Z,22.4
2023-01-11T01:40:23.660Z,22.4
2023-01-11T01:44:59.249Z,22.3
2023-01-11T01:50:05.579Z,22.4
2023-01-11T01:55:12.761Z,22.3
2023-01-11T02:00:03.977Z,22.3
2023-01-11T02:05:11.676Z,22.3
2023-01-11T02:10:18.745Z,22.8
2023-01-11T02:15:09.237Z,23.5
2023-01-11T02:20:16.643Z,24.2
2023-01-11T02:25:24.271Z,24.8
2023-01-11T02:30:31.304Z,25.3
2023-01-11T02:35:38.535Z,25.8
2023-01-11T02:41:01.107Z,26.3
2023-01-11T02:45:52.756Z,26.7
2023-01-11T02:51:00.148Z,27
2023-01-11T02:56:22.969Z,27.4
2023-01-11T03:01:29.902Z,27.9
2023-01-11T03:06:37.244Z,28.3
2023-01-11T03:11:44.589Z,28.7
2023-01-11T03:16:52.426Z,29.1
2023-01-11T03:22:14.600Z,29.5
2023-01-11T03:27:37.740Z,29.9
2023-01-11T03:32:59.796Z,30.4
2023-01-11T03:38:22.203Z,30.6
2023-01-11T03:43:28.950Z,30.8
2023-01-11T03:48:51.507Z,30.9
2023-01-11T03:54:14.043Z,31.1
2023-01-11T03:59:36.525Z,31.2
2023-01-11T04:04:43.338Z,31.3
2023-01-11T04:09:50.371Z,31.3
2023-01-11T04:15:13.336Z,31.4
2023-01-11T04:20:04.846Z,31.4
2023-01-11T04:25:27.483Z,31.4
2023-01-11T04:30:49.841Z,31.4
2023-01-11T04:35:57.369Z,31.4
2023-01-11T04:41:21.542Z,31.5
2023-01-11T04:46:45.888Z,31.5
2023-01-11T04:52:07.623Z,31.5
2023-01-11T04:57:30.587Z,31.5
2023-01-11T05:02:54.425Z,31.5
2023-01-11T05:08:16.483Z,31.5
2023-01-11T05:13:38.544Z,31.4
2023-01-11T05:18:29.973Z,31.4
2023-01-11T05:23:52.129Z,31.4
2023-01-11T05:28:43.944Z,31.4
2023-01-11T05:34:06.212Z,31.4
2023-01-11T05:39:12.869Z,31.4
2023-01-11T05:44:35.583Z,31.4
2023-01-11T05:49:57.607Z,31.3
2023-01-11T05:55:20.378Z,31.3
2023-01-11T06:00:43.104Z,31.3
2023-01-11T06:06:05.401Z,31.3
2023-01-11T06:11:28.071Z,31.3
2023-01-11T06:16:35.839Z,31.2
2023-01-11T06:21:58.923Z,31.2
2023-01-11T06:27:07.851Z,31.1
2023-01-11T06:32:30.524Z,31.1
2023-01-11T06:37:53.012Z,31.1
2023-01-11T06:43:15.206Z,31.1
2023-01-11T06:48:40.364Z,31
2023-01-11T06:54:03.404Z,31
2023-01-11T06:59:27.206Z,30.9
2023-01-11T07:04:51.661Z,30.9
2023-01-11T07:10:14.183Z,30.9
2023-01-11T07:15:36.635Z,30.8
2023-01-11T07:20:59.325Z,30.8
2023-01-11T07:26:21.388Z,30.8
2023-01-11T07:32:01.581Z,30.7
2023-01-11T07:37:44.365Z,30.7
2023-01-11T07:43:21.280Z,30.7
2023-01-11T07:48:54.304Z,30.8
2023-01-11T07:54:01.617Z,30.8
2023-01-11T07:59:24.045Z,30.7
2023-01-11T08:04:47.733Z,30.7
2023-01-11T08:10:10.508Z,30.7
2023-01-11T08:15:35.321Z,30.6
2023-01-11T08:20:58.508Z,30.6
2023-01-11T08:26:21.039Z,42.8
2023-01-11T08:31:44.354Z,46.8
2023-01-11T08:37:07.300Z,44
2023-01-11T08:42:29.986Z,44.9
2023-01-11T08:47:58.782Z,49.1
2023-01-11T08:53:21.448Z,50.5
2023-01-11T08:58:45.187Z,51.3
2023-01-11T09:04:19.295Z,51.8
2023-01-11T09:09:45.475Z,51.5
2023-01-11T09:15:08.091Z,50.4
2023-01-11T09:20:31.250Z,49.9
2023-01-11T09:25:37.363Z,49.3
2023-01-11T09:30:45.422Z,48.8
2023-01-11T09:36:09.378Z,47.8
2023-01-11T09:41:33.312Z,45.7
2023-01-11T09:46:58.313Z,43.3
2023-01-11T09:52:05.653Z,41.6
2023-01-11T09:57:28.945Z,40.3
2023-01-11T10:02:52.204Z,39.3
2023-01-11T10:18:24.421Z,38.6
2023-01-11T10:24:30.588Z,36.8
2023-01-11T10:29:53.045Z,36.4
2023-01-11T10:35:15.496Z,36
2023-01-11T10:40:39.159Z,35.6
2023-01-11T10:46:01.375Z,35.3
2023-01-11T10:51:12.185Z,34.9
2023-01-11T10:56:35.864Z,34.6
2023-01-11T11:02:02.414Z,34.2
2023-01-11T11:07:28.071Z,33.9
2023-01-11T11:12:36.013Z,33.6
2023-01-11T11:17:44.421Z,33.3
2023-01-11T11:23:07.734Z,33.1
2023-01-11T11:28:31.368Z,32.8
2023-01-11T11:33:39.265Z,32.6
2023-01-11T11:39:02.123Z,32.4
2023-01-11T11:44:25.478Z,32.2
2023-01-11T11:49:47.674Z,32
2023-01-11T11:55:31.025Z,31.8
2023-01-11T12:00:54.400Z,31.7
2023-01-11T12:06:16.859Z,31.5
2023-01-11T12:11:34.407Z,31.4
2023-01-11T12:17:01.687Z,31.3
2023-01-11T12:22:23.794Z,31.1
2023-01-11T12:27:46.443Z,31
2023-01-11T12:33:10.010Z,30.9
2023-01-11T12:37:45.659Z,30.8
2023-01-11T12:42:36.221Z,30.8
2023-01-11T12:47:58.656Z,30.6
2023-01-11T12:53:22.376Z,30.6
2023-01-11T12:58:47.256Z,30.5
2023-01-11T13:04:12.001Z,30.4
2023-01-11T13:09:37.265Z,30.3
2023-01-11T13:14:44.344Z,30.3
2023-01-11T13:20:07.105Z,30.2
2023-01-11T13:25:49.359Z,30.1
2023-01-11T13:31:16.510Z,30.1
2023-01-11T13:36:51.424Z,30
2023-01-11T13:42:16.295Z,29.9
2023-01-11T13:47:22.968Z,29.9
2023-01-11T13:52:44.962Z,29.9
2023-01-11T13:58:13.053Z,29.8
2023-01-11T14:03:35.630Z,29.8
2023-01-11T14:08:58.217Z,29.7
2023-01-11T14:14:21.867Z,29.6
2023-01-11T14:19:44.603Z,29.6
2023-01-11T14:25:07.309Z,29.6
2023-01-11T14:30:31.091Z,29.5
2023-01-11T14:35:53.458Z,29.4
2023-01-11T14:41:16.480Z,29.4
2023-01-11T14:46:49.773Z,29.4
2023-01-11T14:52:28.368Z,29.4
2023-01-11T14:57:56.100Z,29.3
2023-01-11T15:03:22.676Z,29.3
2023-01-11T15:08:45.154Z,29.3
2023-01-11T15:14:07.201Z,29.2
2023-01-11T15:19:15.346Z,29.2
2023-01-11T15:24:39.682Z,29
2023-01-11T15:30:03.878Z,28.8
2023-01-11T15:35:27.616Z,28.6
2023-01-11T15:40:33.872Z,28.6
2023-01-11T15:45:56.142Z,28.6
2023-01-11T15:51:19.875Z,28.4
2023-01-11T15:56:27.200Z,28.4
2023-01-11T16:01:49.591Z,28.4
2023-01-11T16:07:14.751Z,28.4
2023-01-11T16:12:05.729Z,28.3
2023-01-11T16:17:29.078Z,28.1
2023-01-11T16:27:13.601Z,27.4
2023-01-11T16:37:47.267Z,26.8
2023-01-11T16:43:09.496Z,26.6
2023-01-11T16:48:31.915Z,26.3
2023-01-11T16:53:39.850Z,25.9
2023-01-11T16:59:02.776Z,25.7
2023-01-11T17:04:15.932Z,25.4
2023-01-11T17:09:32.913Z,25.3
2023-01-11T17:14:55.677Z,25.1
2023-01-11T17:20:03.805Z,25
2023-01-11T17:25:29.417Z,24.8
2023-01-11T17:30:52.602Z,24.5
2023-01-11T17:35:59.392Z,24.1
2023-01-11T17:41:25.662Z,23.9
2023-01-11T17:46:49.442Z,23.6
2023-01-11T17:51:40.341Z,23.4
2023-01-11T17:57:10.899Z,23.3
2023-01-11T18:02:18.714Z,23.1
2023-01-11T18:07:43.290Z,23
2023-01-11T18:12:53.010Z,22.9
2023-01-11T18:18:18.267Z,22.8
2023-01-11T18:23:42.894Z,22.8
2023-01-11T18:29:08.019Z,22.8
2023-01-11T18:34:32.400Z,22.8
2023-01-11T18:39:41.108Z,22.7
2023-01-11T18:44:53.305Z,22.7
2023-01-11T18:50:19.765Z,22.6
2023-01-11T18:55:43.858Z,22.6
2023-01-11T19:01:09.206Z,22.6
2023-01-11T19:06:56.458Z,22.6
2023-01-11T19:12:24.505Z,22.5
2023-01-11T19:17:51.367Z,22.5
2023-01-11T19:23:25.276Z,22.4
2023-01-11T19:28:42.295Z,22.4
2023-01-11T19:34:15.963Z,22.4
2023-01-11T19:39:16.065Z,22.3
2023-01-11T19:44:33.236Z,22.2
2023-01-11T19:50:26.105Z,22.1
2023-01-11T19:55:54.336Z,22
2023-01-11T20:01:04.762Z,21.9
2023-01-11T20:06:34.885Z,21.8
2023-01-11T20:11:43.954Z,21.8
2023-01-11T20:17:10.541Z,21.8
2023-01-11T20:22:22.635Z,22.7
2023-01-11T20:27:33.653Z,23.9
2023-01-11T20:33:24.725Z,25.4
2023-01-11T20:38:50.736Z,26.8
2023-01-11T20:49:26.919Z,28.5
2023-01-11T20:54:35.827Z,29
2023-01-11T20:59:59.680Z,29.5
2023-01-11T21:05:25.738Z,29.9
2023-01-11T21:10:49.549Z,30.4
2023-01-11T21:15:57.397Z,30.8
2023-01-11T21:21:21.270Z,31
2023-01-11T21:26:28.968Z,31.2
2023-01-11T21:31:53.081Z,31.3
2023-01-11T21:37:15.356Z,31.4
2023-01-11T21:42:38.472Z,31.5
2023-01-11T21:48:01.885Z,31.6
2023-01-11T21:53:24.750Z,31.7
2023-01-11T21:58:31.932Z,31.7
2023-01-11T22:03:22.960Z,31.8
2023-01-11T22:08:46.192Z,31.8
2023-01-11T22:14:20.303Z,31.8
2023-01-11T22:19:43.100Z,31.8
2023-01-11T22:25:05.978Z,31.8
2023-01-11T22:30:29.309Z,31.9
2023-01-11T22:35:52.442Z,31.8
2023-01-11T22:41:14.499Z,31.8
2023-01-11T22:46:37.691Z,31.8
2023-01-11T22:52:00.171Z,31.8
2023-01-11T22:56:51.642Z,31.8
2023-01-11T23:01:59.102Z,31.8
2023-01-11T23:07:22.509Z,31.8
2023-01-11T23:12:44.336Z,31.8
2023-01-11T23:17:53.916Z,31.8
2023-01-11T23:23:16.502Z,31.7
2023-01-11T23:28:23.687Z,31.7
2023-01-11T23:33:30.960Z,31.6
2023-01-11T23:38:38.192Z,31.6
2023-01-11T23:44:00.552Z,31.6
2023-01-11T23:49:23.129Z,31.6
2023-01-11T23:54:45.956Z,31.6
2023-01-11T23:59:53.005Z,31.5
